createdAt,value
2023-06-20T00:00:42.655Z,1692.00
2023-06-20T00:01:42.664Z,1684.00
2023-06-20T00:02:42.789Z,1696.00
2023-06-20T00:03:42.796Z,1669.00
2023-06-20T00:04:42.766Z,1647.00
2023-06-20T00:05:42.751Z,1650.00
2023-06-20T00:06:42.769Z,1633.00
2023-06-20T00:07:42.790Z,1648.00
2023-06-20T00:08:42.826Z,1631.00
2023-06-20T00:09:42.837Z,1630.00
2023-06-20T00:10:42.860Z,1632.00
2023-06-20T00:11:42.893Z,1618.00
2023-06-20T00:12:42.900Z,1626.00
2023-06-20T00:13:42.926Z,1607.00
2023-06-20T00:14:42.968Z,1596.00
2023-06-20T00:15:42.955Z,1602.00
2023-06-20T00:16:42.976Z,1628.00
2023-06-20T00:17:43.047Z,1611.00
2023-06-20T00:18:43.010Z,1616.00
2023-06-20T00:19:43.032Z,1598.00
2023-06-20T00:20:43.065Z,1594.00
2023-06-20T00:21:43.072Z,1584.00
2023-06-20T00:22:43.102Z,1589.00
2023-06-20T00:23:43.086Z,1590.00
2023-06-20T00:24:43.116Z,1590.00
2023-06-20T00:25:43.044Z,1589.00
2023-06-20T00:26:43.049Z,1593.00
2023-06-20T00:27:43.028Z,1591.00
2023-06-20T00:28:43.037Z,1583.00
2023-06-20T00:29:43.016Z,1586.00
2023-06-20T00:30:42.996Z,1591.00
2023-06-20T00:31:42.965Z,1597.00
2023-06-20T00:32:42.993Z,1597.00
2023-06-20T00:33:42.966Z,1604.00
2023-06-20T00:34:42.930Z,1629.00
2023-06-20T00:35:42.902Z,1724.00
2023-06-20T00:36:42.889Z,1751.00
2023-06-20T00:37:42.871Z,1756.00
2023-06-20T00:38:42.863Z,1801.00
2023-06-20T00:39:42.840Z,1822.00
2023-06-20T00:40:42.851Z,1866.00
2023-06-20T00:41:42.868Z,1918.00
2023-06-20T00:42:42.883Z,1957.00
2023-06-20T00:43:42.887Z,2021.00
2023-06-20T00:44:42.912Z,2053.00
2023-06-20T00:45:42.945Z,2086.00
2023-06-20T00:46:42.916Z,2128.00
2023-06-20T00:47:42.991Z,2150.00
2023-06-20T00:48:42.912Z,2184.00
2023-06-20T00:49:42.930Z,2242.00
2023-06-20T00:50:42.930Z,2267.00
2023-06-20T00:51:42.951Z,2293.00
2023-06-20T00:52:42.958Z,2314.00
2023-06-20T00:53:42.951Z,2349.00
2023-06-20T00:54:42.959Z,2379.00
2023-06-20T00:55:42.967Z,2410.00
2023-06-20T00:56:42.957Z,2452.00
2023-06-20T00:57:42.959Z,2465.00
2023-06-20T00:58:42.968Z,2488.00
2023-06-20T00:59:42.974Z,2552.00
2023-06-20T01:00:42.989Z,2582.00
2023-06-20T01:01:43.056Z,2584.00
2023-06-20T01:02:43.066Z,2614.00
2023-06-20T01:03:43.071Z,2643.00
2023-06-20T01:04:42.998Z,2656.00
2023-06-20T01:05:43.001Z,2656.00
2023-06-20T01:06:43.019Z,2674.00
2023-06-20T01:07:43.026Z,2717.00
2023-06-20T01:08:43.016Z,2729.00
2023-06-20T01:09:43.016Z,2759.00
2023-06-20T01:10:43.020Z,2776.00
2023-06-20T01:11:43.009Z,2804.00
2023-06-20T01:12:43.012Z,2842.00
2023-06-20T01:13:43.008Z,2830.00
2023-06-20T01:14:43.024Z,2873.00
2023-06-20T01:15:43.044Z,2865.00
2023-06-20T01:16:43.018Z,2909.00
2023-06-20T01:17:43.093Z,2946.00
2023-06-20T01:18:43.020Z,2968.00
2023-06-20T01:19:43.038Z,3000.00
2023-06-20T01:20:43.038Z,3006.00
2023-06-20T01:21:43.037Z,3004.00
2023-06-20T01:22:43.045Z,3037.00
2023-06-20T01:23:43.068Z,3048.00
2023-06-20T01:24:43.128Z,3044.00
2023-06-20T01:25:43.076Z,3083.00
2023-06-20T01:26:43.069Z,3101.00
2023-06-20T01:27:43.067Z,3113.00
2023-06-20T01:28:43.082Z,3104.00
2023-06-20T01:29:43.083Z,3130.00
2023-06-20T01:30:43.095Z,3142.00
2023-06-20T01:31:43.088Z,3164.00
2023-06-20T01:32:43.136Z,3158.00
2023-06-20T01:33:43.103Z,3159.00
2023-06-20T01:34:43.128Z,3161.00
2023-06-20T01:35:43.118Z,3178.00
2023-06-20T01:36:43.126Z,3196.00
2023-06-20T01:37:43.122Z,3198.00
2023-06-20T01:38:43.136Z,3189.00
2023-06-20T01:39:43.118Z,3190.00
2023-06-20T01:40:43.098Z,3196.00
2023-06-20T01:41:43.068Z,3209.00
2023-06-20T01:42:43.064Z,3202.00
2023-06-20T01:43:43.035Z,3219.00
2023-06-20T01:44:43.035Z,3227.00
2023-06-20T01:45:42.996Z,3241.00
2023-06-20T01:46:43.074Z,3239.00
2023-06-20T01:47:43.029Z,3254.00
2023-06-20T01:48:42.935Z,3207.00
2023-06-20T01:49:42.907Z,3231.00
2023-06-20T01:50:42.919Z,3252.00
2023-06-20T01:51:42.867Z,3256.00
2023-06-20T01:52:42.845Z,3265.00
2023-06-20T01:53:42.840Z,3255.00
2023-06-20T01:54:42.802Z,3282.00
2023-06-20T01:55:42.784Z,3262.00
2023-06-20T01:56:42.768Z,3285.00
2023-06-20T01:57:42.746Z,3268.00
2023-06-20T01:58:42.764Z,3306.00
2023-06-20T01:59:42.765Z,3303.00
2023-06-20T02:00:42.681Z,3290.00
2023-06-20T02:01:42.655Z,3315.00
2023-06-20T02:02:42.719Z,3323.00
2023-06-20T02:03:42.741Z,3323.00
2023-06-20T02:04:42.681Z,3316.00
2023-06-20T02:05:42.684Z,3325.00
2023-06-20T02:06:42.685Z,3315.00
2023-06-20T02:07:42.683Z,3338.00
2023-06-20T02:08:42.698Z,3358.00
2023-06-20T02:09:42.688Z,3354.00
2023-06-20T02:10:42.706Z,3358.00
2023-06-20T02:11:42.696Z,3340.00
2023-06-20T02:12:42.718Z,3345.00
2023-06-20T02:13:42.704Z,3366.00
2023-06-20T02:14:42.733Z,3352.00
2023-06-20T02:15:42.734Z,3334.00
2023-06-20T02:16:42.750Z,3356.00
2023-06-20T02:17:42.779Z,3360.00
2023-06-20T02:18:42.731Z,3356.00
2023-06-20T02:19:42.758Z,3372.00
2023-06-20T02:20:42.770Z,3379.00
2023-06-20T02:21:42.752Z,3394.00
2023-06-20T02:22:42.772Z,3388.00
2023-06-20T02:23:42.775Z,3362.00
2023-06-20T02:24:42.861Z,3359.00
2023-06-20T02:25:42.793Z,3372.00
2023-06-20T02:26:42.791Z,3382.00
2023-06-20T02:27:42.805Z,3390.00
2023-06-20T02:28:42.844Z,3389.00
2023-06-20T02:29:42.827Z,3378.00
2023-06-20T02:30:42.825Z,3408.00
2023-06-20T02:31:42.900Z,3390.00
2023-06-20T02:32:42.865Z,3386.00
2023-06-20T02:33:42.835Z,3401.00
2023-06-20T02:34:42.847Z,3385.00
2023-06-20T02:35:42.849Z,3384.00
2023-06-20T02:36:42.871Z,3383.00
2023-06-20T02:37:42.871Z,3368.00
2023-06-20T02:38:42.891Z,3394.00
2023-06-20T02:39:42.883Z,3376.00
2023-06-20T02:40:42.910Z,3393.00
2023-06-20T02:41:42.936Z,3381.00
2023-06-20T02:42:45.957Z,3390.00
2023-06-20T02:43:42.943Z,3377.00
2023-06-20T02:44:42.898Z,3359.00
2023-06-20T02:45:42.867Z,3360.00
2023-06-20T02:46:42.812Z,3358.00
2023-06-20T02:47:42.813Z,3353.00
2023-06-20T02:48:42.785Z,3384.00
2023-06-20T02:49:42.760Z,3380.00
2023-06-20T02:50:42.784Z,3381.00
2023-06-20T02:51:42.715Z,3386.00
2023-06-20T02:52:42.692Z,3382.00
2023-06-20T02:53:42.671Z,3366.00
2023-06-20T02:54:42.656Z,3368.00
2023-06-20T02:55:42.643Z,3367.00
2023-06-20T02:56:42.619Z,3370.00
2023-06-20T02:57:42.610Z,3377.00
2023-06-20T02:58:42.577Z,3390.00
2023-06-20T02:59:42.564Z,3365.00
2023-06-20T03:00:42.534Z,3368.00
2023-06-20T03:01:42.569Z,3351.00
2023-06-20T03:02:42.604Z,3357.00
2023-06-20T03:03:42.568Z,3365.00
2023-06-20T03:04:42.477Z,3364.00
2023-06-20T03:05:42.448Z,3355.00
2023-06-20T03:06:42.429Z,3383.00
2023-06-20T03:07:42.406Z,3359.00
2023-06-20T03:08:42.411Z,3388.00
2023-06-20T03:09:42.375Z,3378.00
2023-06-20T03:10:42.380Z,3378.00
2023-06-20T03:11:42.350Z,3372.00
2023-06-20T03:12:42.354Z,3372.00
2023-06-20T03:13:42.329Z,3358.00
2023-06-20T03:14:42.318Z,3354.00
2023-06-20T03:15:42.323Z,3355.00
2023-06-20T03:16:42.337Z,3356.00
2023-06-20T03:17:42.268Z,3356.00
2023-06-20T03:18:42.225Z,3357.00
2023-06-20T03:19:42.200Z,3336.00
2023-06-20T03:20:42.194Z,3365.00
2023-06-20T03:21:42.157Z,3342.00
2023-06-20T03:22:42.131Z,3380.00
2023-06-20T03:23:42.118Z,3381.00
2023-06-20T03:24:42.236Z,3340.00
2023-06-20T03:25:42.080Z,3362.00
2023-06-20T03:26:42.089Z,3342.00
2023-06-20T03:27:42.054Z,3355.00
2023-06-20T03:28:42.012Z,3349.00
2023-06-20T03:29:41.998Z,3339.00
2023-06-20T03:30:41.967Z,3356.00
2023-06-20T03:31:41.971Z,3343.00
2023-06-20T03:32:41.981Z,3329.00
2023-06-20T03:33:41.924Z,3327.00
2023-06-20T03:34:41.896Z,3334.00
2023-06-20T03:35:41.866Z,3330.00
2023-06-20T03:36:41.855Z,3323.00
2023-06-20T03:37:41.836Z,3325.00
2023-06-20T03:38:41.872Z,3332.00
2023-06-20T03:39:41.909Z,3323.00
2023-06-20T03:40:41.882Z,3322.00
2023-06-20T03:41:41.874Z,3300.00
2023-06-20T03:42:41.915Z,3310.00
2023-06-20T03:43:41.896Z,3307.00
2023-06-20T03:44:41.916Z,3291.00
2023-06-20T03:45:41.909Z,3291.00
2023-06-20T03:46:41.977Z,3315.00
2023-06-20T03:47:41.942Z,3308.00
2023-06-20T03:48:41.939Z,3320.00
2023-06-20T03:49:44.680Z,3327.00
2023-06-20T03:50:41.936Z,3316.00
2023-06-20T03:51:41.891Z,3320.00
2023-06-20T03:52:41.909Z,3278.00
2023-06-20T03:53:41.857Z,3296.00
2023-06-20T03:54:41.882Z,3313.00
2023-06-20T03:55:41.905Z,3302.00
2023-06-20T03:56:41.815Z,3306.00
2023-06-20T03:57:41.876Z,3319.00
2023-06-20T03:58:41.887Z,3319.00
2023-06-20T03:59:41.822Z,3343.00
2023-06-20T04:00:41.736Z,3347.00
2023-06-20T04:01:41.704Z,3346.00
2023-06-20T04:02:41.710Z,3341.00
2023-06-20T04:03:41.662Z,3324.00
2023-06-20T04:04:41.648Z,3331.00
2023-06-20T04:05:41.629Z,3325.00
2023-06-20T04:06:41.665Z,3326.00
2023-06-20T04:07:41.577Z,3330.00
2023-06-20T04:08:41.599Z,3338.00
2023-06-20T04:09:41.989Z,3352.00
2023-06-20T04:10:41.635Z,3402.00
2023-06-20T04:11:41.522Z,3388.00
2023-06-20T04:12:41.593Z,3398.00
2023-06-20T04:13:41.488Z,3373.00
2023-06-20T04:14:41.524Z,3385.00
2023-06-20T04:15:41.474Z,3397.00
2023-06-20T04:16:41.402Z,3377.00
2023-06-20T04:17:41.386Z,3393.00
2023-06-20T04:18:41.360Z,3406.00
2023-06-20T04:19:41.320Z,3421.00
2023-06-20T04:20:41.299Z,3433.00
2023-06-20T04:21:41.280Z,3430.00
2023-06-20T04:22:41.263Z,3436.00
2023-06-20T04:23:41.230Z,3427.00
2023-06-20T04:24:41.287Z,3414.00
2023-06-20T04:25:41.200Z,3393.00
2023-06-20T04:26:41.178Z,3405.00
2023-06-20T04:27:41.168Z,3418.00
2023-06-20T04:28:41.201Z,3410.00
2023-06-20T04:29:41.138Z,3399.00
2023-06-20T04:30:41.089Z,3400.00
2023-06-20T04:31:41.070Z,3403.00
2023-06-20T04:32:41.090Z,3411.00
2023-06-20T04:33:41.020Z,3408.00
2023-06-20T04:34:40.985Z,3413.00
2023-06-20T04:35:40.972Z,3401.00
2023-06-20T04:36:40.924Z,3416.00
2023-06-20T04:37:40.913Z,3396.00
2023-06-20T04:38:40.894Z,3404.00
2023-06-20T04:39:40.874Z,3381.00
2023-06-20T04:40:40.847Z,3362.00
2023-06-20T04:41:40.841Z,3358.00
2023-06-20T04:42:40.813Z,3359.00
2023-06-20T04:43:40.815Z,3349.00
2023-06-20T04:44:40.790Z,3363.00
2023-06-20T04:45:40.782Z,3345.00
2023-06-20T04:46:40.746Z,3337.00
2023-06-20T04:47:40.824Z,3343.00
2023-06-20T04:48:40.818Z,3349.00
2023-06-20T04:49:40.694Z,3339.00
2023-06-20T04:50:40.668Z,3335.00
2023-06-20T04:51:40.652Z,3320.00
2023-06-20T04:52:40.621Z,3324.00
2023-06-20T04:53:40.603Z,3333.00
2023-06-20T04:54:40.600Z,3332.00
2023-06-20T04:55:40.554Z,3336.00
2023-06-20T04:56:40.538Z,3306.00
2023-06-20T04:57:40.524Z,3308.00
2023-06-20T04:58:40.498Z,3312.00
2023-06-20T04:59:40.474Z,3321.00
2023-06-20T05:00:40.442Z,3319.00
2023-06-20T05:01:40.487Z,3343.00
2023-06-20T05:02:40.460Z,3322.00
2023-06-20T05:03:40.437Z,3321.00
2023-06-20T05:04:40.373Z,3295.00
2023-06-20T05:05:40.339Z,3305.00
2023-06-20T05:06:40.348Z,3312.00
2023-06-20T05:07:40.309Z,3288.00
2023-06-20T05:08:40.281Z,3303.00
2023-06-20T05:09:40.272Z,3303.00
2023-06-20T05:10:40.242Z,3297.00
2023-06-20T05:11:40.221Z,3284.00
2023-06-20T05:12:40.204Z,3279.00
2023-06-20T05:13:40.197Z,3284.00
2023-06-20T05:14:40.174Z,3285.00
2023-06-20T05:15:40.151Z,3264.00
2023-06-20T05:16:40.156Z,3263.00
2023-06-20T05:17:40.143Z,3265.00
2023-06-20T05:18:40.221Z,3278.00
2023-06-20T05:19:40.088Z,3249.00
2023-06-20T05:20:40.058Z,3248.00
2023-06-20T05:21:40.024Z,3261.00
2023-06-20T05:22:40.014Z,3253.00
2023-06-20T05:23:40.027Z,3244.00
2023-06-20T05:24:40.107Z,3238.00
2023-06-20T05:25:39.982Z,3216.00
2023-06-20T05:26:39.987Z,3213.00
2023-06-20T05:27:39.943Z,3183.00
2023-06-20T05:28:39.947Z,3204.00
2023-06-20T05:29:39.910Z,3184.00
2023-06-20T05:30:39.874Z,3181.00
2023-06-20T05:31:39.938Z,3198.00
2023-06-20T05:32:39.984Z,3226.00
2023-06-20T05:33:39.893Z,3269.00
2023-06-20T05:34:39.839Z,3330.00
2023-06-20T05:35:39.809Z,3372.00
2023-06-20T05:36:39.806Z,3397.00
2023-06-20T05:37:39.779Z,3408.00
2023-06-20T05:38:39.790Z,3389.00
2023-06-20T05:39:39.752Z,3384.00
2023-06-20T05:40:39.748Z,3404.00
2023-06-20T05:41:39.701Z,3399.00
2023-06-20T05:42:39.689Z,3402.00
2023-06-20T05:43:39.641Z,3420.00
2023-06-20T05:44:39.622Z,3446.00
2023-06-20T05:45:40.822Z,3507.00
2023-06-20T05:46:39.671Z,3629.00
2023-06-20T05:47:39.636Z,3662.00
2023-06-20T05:48:39.571Z,3711.00
2023-06-20T05:49:39.507Z,3700.00
2023-06-20T05:50:39.463Z,3672.00
2023-06-20T05:51:39.433Z,3623.00
2023-06-20T05:52:39.441Z,3558.00
2023-06-20T05:53:39.406Z,3498.00
2023-06-20T05:54:40.020Z,3483.00
2023-06-20T05:55:39.347Z,3437.00
2023-06-20T05:56:39.345Z,3394.00
2023-06-20T05:57:39.311Z,3375.00
2023-06-20T05:58:39.373Z,3342.00
2023-06-20T05:59:39.275Z,3310.00
2023-06-20T06:00:39.206Z,3305.00
2023-06-20T06:01:39.248Z,3309.00
2023-06-20T06:02:39.209Z,3314.00
2023-06-20T06:03:39.384Z,3314.00
2023-06-20T06:04:39.381Z,3289.00
2023-06-20T06:05:39.126Z,3254.00
2023-06-20T06:06:39.101Z,3238.00
2023-06-20T06:07:39.052Z,3239.00
2023-06-20T06:08:39.027Z,3241.00
2023-06-20T06:09:38.983Z,3245.00
2023-06-20T06:10:38.958Z,3258.00
2023-06-20T06:11:38.925Z,3244.00
2023-06-20T06:12:38.894Z,3232.00
2023-06-20T06:13:38.874Z,3203.00
2023-06-20T06:14:38.916Z,3187.00
2023-06-20T06:15:40.402Z,3149.00
2023-06-20T06:16:39.858Z,3133.00
2023-06-20T06:17:38.833Z,3083.00
2023-06-20T06:18:38.883Z,3084.00
2023-06-20T06:19:38.777Z,3083.00
2023-06-20T06:20:38.702Z,3066.00
2023-06-20T06:21:38.758Z,3073.00
2023-06-20T06:22:38.657Z,3071.00
2023-06-20T06:23:38.633Z,3062.00
2023-06-20T06:25:57.489Z,500.00
2023-06-20T06:26:57.464Z,500.00
2023-06-20T06:27:57.483Z,500.00
2023-06-20T06:28:57.428Z,500.00
2023-06-20T06:29:57.435Z,500.00
2023-06-20T06:30:57.432Z,500.00
2023-06-20T06:31:57.431Z,500.00
2023-06-20T06:32:57.503Z,504.00
2023-06-20T06:33:57.365Z,503.00
2023-06-20T06:34:57.376Z,500.00
2023-06-20T06:35:57.382Z,501.00
2023-06-20T06:36:57.446Z,502.00
2023-06-20T06:37:57.417Z,502.00
2023-06-20T06:38:57.391Z,502.00
2023-06-20T06:39:57.670Z,491.00
2023-06-20T06:40:57.344Z,491.00
2023-06-20T06:41:57.355Z,484.00
2023-06-20T06:42:57.317Z,500.00
2023-06-20T06:43:57.303Z,508.00
2023-06-20T06:44:57.399Z,515.00
2023-06-20T06:45:57.284Z,511.00
2023-06-20T06:46:57.265Z,506.00
2023-06-20T06:47:57.377Z,510.00
2023-06-20T06:48:57.295Z,511.00
2023-06-20T06:49:57.329Z,507.00
2023-06-20T06:50:57.359Z,513.00
2023-06-20T06:51:57.518Z,517.00
2023-06-20T06:52:57.436Z,516.00
2023-06-20T06:53:57.513Z,526.00
2023-06-20T06:54:57.544Z,531.00
2023-06-20T06:55:57.520Z,527.00
2023-06-20T06:56:57.536Z,530.00
2023-06-20T06:57:57.515Z,530.00
2023-06-20T06:58:57.488Z,531.00
2023-06-20T06:59:57.467Z,532.00
2023-06-20T07:00:57.450Z,541.00
2023-06-20T07:01:57.502Z,548.00
2023-06-20T07:02:57.466Z,562.00
2023-06-20T07:03:57.729Z,605.00
2023-06-20T07:04:57.369Z,623.00
2023-06-20T07:05:57.352Z,643.00
2023-06-20T07:06:57.360Z,666.00
2023-06-20T07:07:57.305Z,690.00
2023-06-20T07:08:57.288Z,724.00
2023-06-20T07:09:57.244Z,770.00
2023-06-20T07:10:57.290Z,816.00
2023-06-20T07:11:57.280Z,842.00
2023-06-20T07:12:57.312Z,878.00
2023-06-20T07:13:57.329Z,932.00
2023-06-20T07:14:57.353Z,956.00
2023-06-20T07:15:57.444Z,997.00
2023-06-20T07:17:05.184Z,1008.00
2023-06-20T07:17:58.401Z,1011.00
2023-06-20T07:18:57.319Z,1037.00
2023-06-20T07:19:57.298Z,1015.00
2023-06-20T07:20:57.249Z,1043.00
2023-06-20T07:21:57.225Z,1098.00
2023-06-20T07:22:57.190Z,1194.00
2023-06-20T07:23:57.314Z,1324.00
2023-06-20T07:24:57.793Z,1376.00
2023-06-20T07:25:57.135Z,1405.00
2023-06-20T07:26:57.130Z,1443.00
2023-06-20T07:27:57.101Z,1447.00
2023-06-20T07:28:57.063Z,1450.00
2023-06-20T07:29:57.156Z,1476.00
2023-06-20T07:30:57.051Z,1478.00
2023-06-20T07:31:57.026Z,1490.00
2023-06-20T07:32:56.997Z,1514.00
2023-06-20T07:33:56.857Z,1567.00
2023-06-20T07:34:56.864Z,1637.00
2023-06-20T07:35:56.809Z,1638.00
2023-06-20T07:36:56.797Z,1631.00
2023-06-20T07:37:56.763Z,1672.00
2023-06-20T07:38:56.738Z,1708.00
2023-06-20T07:39:56.713Z,1825.00
2023-06-20T07:40:56.668Z,1849.00
2023-06-20T07:41:56.650Z,1839.00
2023-06-20T07:42:56.655Z,1776.00
2023-06-20T07:43:56.613Z,1700.00
2023-06-20T07:44:56.576Z,1679.00
2023-06-20T07:45:56.594Z,1724.00
2023-06-20T07:46:56.507Z,1688.00
2023-06-20T07:47:56.486Z,1668.00
2023-06-20T07:48:56.435Z,1628.00
2023-06-20T07:49:56.556Z,1628.00
2023-06-20T07:50:56.417Z,1606.00
2023-06-20T07:51:56.413Z,1590.00
2023-06-20T07:52:56.305Z,1538.00
2023-06-20T07:53:57.205Z,1538.00
2023-06-20T07:54:56.247Z,1512.00
2023-06-20T07:55:56.338Z,1431.00
2023-06-20T07:56:56.175Z,1378.00
2023-06-20T07:57:56.217Z,1322.00
2023-06-20T07:58:56.110Z,1276.00
2023-06-20T07:59:56.027Z,1258.00
2023-06-20T08:00:56.080Z,1216.00
2023-06-20T08:01:55.996Z,1137.00
2023-06-20T08:02:56.111Z,1067.00
2023-06-20T08:03:56.020Z,655.00
2023-06-20T08:04:55.898Z,555.00
2023-06-20T08:05:56.089Z,407.00
2023-06-20T08:06:55.830Z,407.00
2023-06-20T08:07:55.797Z,494.00
2023-06-20T08:08:55.771Z,551.00
2023-06-20T08:09:55.735Z,596.00
2023-06-20T08:10:55.704Z,625.00
2023-06-20T08:11:55.675Z,651.00
2023-06-20T08:12:55.644Z,691.00
2023-06-20T08:13:55.609Z,686.00
2023-06-20T08:14:55.658Z,708.00
2023-06-20T08:15:55.529Z,720.00
2023-06-20T08:16:55.572Z,742.00
2023-06-20T08:17:55.525Z,757.00
2023-06-20T08:18:55.424Z,732.00
2023-06-20T08:19:55.579Z,729.00
2023-06-20T08:20:55.342Z,709.00
2023-06-20T08:21:55.310Z,681.00
2023-06-20T08:22:55.606Z,693.00
2023-06-20T08:23:55.305Z,695.00
2023-06-20T08:24:55.228Z,660.00
2023-06-20T08:25:55.182Z,641.00
2023-06-20T08:26:55.134Z,639.00
2023-06-20T08:28:06.371Z,647.00
2023-06-20T08:28:56.111Z,645.00
2023-06-20T08:29:55.024Z,641.00
2023-06-20T08:30:55.036Z,639.00
2023-06-20T08:31:54.946Z,644.00
2023-06-20T08:32:54.902Z,664.00
2023-06-20T08:33:54.849Z,663.00
2023-06-20T08:34:57.031Z,659.00
2023-06-20T08:35:54.983Z,664.00
2023-06-20T08:36:55.000Z,584.00
2023-06-20T08:37:55.046Z,572.00
2023-06-20T08:38:55.018Z,556.00
2023-06-20T08:39:54.986Z,566.00
2023-06-20T08:40:55.063Z,476.00
2023-06-20T08:41:54.922Z,524.00
2023-06-20T08:42:54.899Z,540.00
2023-06-20T08:43:54.871Z,553.00
2023-06-20T08:44:57.773Z,448.00
2023-06-20T08:45:54.930Z,460.00
2023-06-20T08:46:54.796Z,458.00
2023-06-20T08:47:54.732Z,500.00
2023-06-20T08:48:54.666Z,559.00
2023-06-20T08:49:54.637Z,610.00
2023-06-20T08:50:54.607Z,664.00
2023-06-20T08:51:54.567Z,747.00
2023-06-20T08:52:54.560Z,733.00
2023-06-20T08:53:54.859Z,702.00
2023-06-20T08:54:54.539Z,659.00
2023-06-20T08:55:54.454Z,654.00
2023-06-20T08:56:54.375Z,649.00
2023-06-20T08:57:54.356Z,638.00
2023-06-20T08:58:54.330Z,631.00
2023-06-20T08:59:54.410Z,627.00
2023-06-20T09:00:54.259Z,601.00
2023-06-20T09:01:54.209Z,583.00
2023-06-20T09:02:54.312Z,559.00
2023-06-20T09:03:54.120Z,549.00
2023-06-20T09:04:54.112Z,543.00
2023-06-20T09:05:54.038Z,521.00
2023-06-20T09:06:54.010Z,513.00
2023-06-20T09:07:53.974Z,500.00
2023-06-20T09:08:53.923Z,499.00
2023-06-20T09:09:53.886Z,493.00
2023-06-20T09:10:53.841Z,479.00
2023-06-20T09:11:53.808Z,460.00
2023-06-20T09:12:53.790Z,440.00
2023-06-20T09:13:53.746Z,491.00
2023-06-20T09:14:53.757Z,500.00
2023-06-20T09:15:53.679Z,500.00
2023-06-20T09:16:53.660Z,500.00
2023-06-20T09:17:53.622Z,500.00
2023-06-20T09:18:53.555Z,500.00
2023-06-20T09:19:54.899Z,500.00
2023-06-20T09:20:53.487Z,489.00
2023-06-20T09:22:04.307Z,491.00
2023-06-20T09:22:54.414Z,493.00
2023-06-20T09:23:53.369Z,459.00
2023-06-20T09:24:53.354Z,448.00
2023-06-20T09:25:53.336Z,444.00
2023-06-20T09:26:53.273Z,430.00
2023-06-20T09:27:53.231Z,466.00
2023-06-20T09:28:53.199Z,500.00
2023-06-20T09:29:53.241Z,504.00
2023-06-20T09:30:53.151Z,506.00
2023-06-20T09:31:53.067Z,499.00
2023-06-20T09:32:53.102Z,506.00
2023-06-20T09:33:52.996Z,500.00
2023-06-20T09:34:52.970Z,504.00
2023-06-20T09:35:52.938Z,505.00
2023-06-20T09:36:52.965Z,518.00
2023-06-20T09:37:52.858Z,524.00
2023-06-20T09:38:52.805Z,523.00
2023-06-20T09:39:52.810Z,503.00
2023-06-20T09:40:52.736Z,500.00
2023-06-20T09:41:52.728Z,506.00
2023-06-20T09:42:52.764Z,519.00
2023-06-20T09:43:52.627Z,522.00
2023-06-20T09:44:52.601Z,524.00
2023-06-20T09:45:52.596Z,552.00
2023-06-20T09:46:52.587Z,628.00
2023-06-20T09:47:52.605Z,866.00
2023-06-20T09:48:52.480Z,1209.00
2023-06-20T09:49:52.435Z,1272.00
2023-06-20T09:50:52.401Z,1315.00
2023-06-20T09:51:52.369Z,1336.00
2023-06-20T09:52:52.385Z,1324.00
2023-06-20T09:53:52.309Z,1281.00
2023-06-20T09:54:52.273Z,1295.00
2023-06-20T09:55:52.242Z,1133.00
2023-06-20T09:56:52.207Z,1047.00
2023-06-20T09:57:52.179Z,966.00
2023-06-20T09:58:52.146Z,976.00
2023-06-20T09:59:52.096Z,1043.00
2023-06-20T10:00:52.077Z,1089.00
2023-06-20T10:01:52.462Z,1036.00
2023-06-20T10:02:52.263Z,1025.00
2023-06-20T10:03:52.038Z,1015.00
2023-06-20T10:04:52.082Z,1033.00
2023-06-20T10:05:51.894Z,1063.00
2023-06-20T10:06:51.851Z,1215.00
2023-06-20T10:07:51.817Z,1286.00
2023-06-20T10:08:51.796Z,1299.00
2023-06-20T10:09:51.766Z,1269.00
2023-06-20T10:10:51.758Z,1275.00
2023-06-20T10:11:51.685Z,1288.00
2023-06-20T10:12:51.689Z,1339.00
2023-06-20T10:13:51.638Z,1378.00
2023-06-20T10:14:51.633Z,1412.00
2023-06-20T10:15:51.556Z,1436.00
2023-06-20T10:16:51.524Z,1460.00
2023-06-20T10:17:51.654Z,1441.00
2023-06-20T10:18:51.495Z,1551.00
2023-06-20T10:19:51.565Z,1559.00
2023-06-20T10:20:51.389Z,1570.00
2023-06-20T10:21:51.383Z,1545.00
2023-06-20T10:22:51.326Z,1523.00
2023-06-20T10:23:51.380Z,1528.00
2023-06-20T10:24:51.377Z,1534.00
2023-06-20T10:25:51.234Z,1541.00
2023-06-20T10:26:51.244Z,1549.00
2023-06-20T10:27:51.160Z,1556.00
2023-06-20T10:28:51.347Z,1531.00
2023-06-20T10:29:51.110Z,1531.00
2023-06-20T10:30:51.108Z,1501.00
2023-06-20T10:31:51.177Z,1475.00
2023-06-20T10:32:51.139Z,1459.00
2023-06-20T10:33:51.039Z,1460.00
2023-06-20T10:34:51.046Z,1464.00
2023-06-20T10:35:51.762Z,1461.00
2023-06-20T10:36:51.014Z,1455.00
2023-06-20T10:37:51.020Z,1439.00
2023-06-20T10:38:50.944Z,1427.00
2023-06-20T10:39:50.970Z,1427.00
2023-06-20T10:40:50.925Z,1426.00
2023-06-20T10:41:50.922Z,1415.00
2023-06-20T10:42:50.880Z,1393.00
2023-06-20T10:43:50.885Z,1389.00
2023-06-20T10:44:50.856Z,1382.00
2023-06-20T10:45:50.899Z,1378.00
2023-06-20T10:46:50.820Z,1350.00
2023-06-20T10:47:50.883Z,1348.00
2023-06-20T10:48:50.792Z,1350.00
2023-06-20T10:49:51.250Z,1340.00
2023-06-20T10:50:50.781Z,1329.00
2023-06-20T10:51:50.802Z,1316.00
2023-06-20T10:52:50.728Z,1322.00
2023-06-20T10:53:50.699Z,1322.00
2023-06-20T10:54:50.679Z,1325.00
2023-06-20T10:55:50.716Z,1326.00
2023-06-20T10:56:50.594Z,1316.00
2023-06-20T10:57:50.574Z,1305.00
2023-06-20T10:58:50.531Z,1305.00
2023-06-20T10:59:50.776Z,1283.00
2023-06-20T11:00:50.472Z,1273.00
2023-06-20T11:01:50.446Z,1252.00
2023-06-20T11:02:50.574Z,1250.00
2023-06-20T11:03:50.406Z,1254.00
2023-06-20T11:04:50.339Z,1262.00
2023-06-20T11:05:50.308Z,1254.00
2023-06-20T11:06:50.295Z,1243.00
2023-06-20T11:07:52.142Z,1236.00
2023-06-20T11:08:50.245Z,1237.00
2023-06-20T11:09:50.192Z,1221.00
2023-06-20T11:10:50.153Z,1236.00
2023-06-20T11:11:50.152Z,1224.00
2023-06-20T11:12:50.102Z,1211.00
2023-06-20T11:13:50.099Z,1184.00
2023-06-20T11:14:50.022Z,1150.00
2023-06-20T11:15:50.029Z,1137.00
2023-06-20T11:16:50.014Z,1139.00
2023-06-20T11:17:50.849Z,1139.00
2023-06-20T11:18:50.113Z,1142.00
2023-06-20T11:19:49.863Z,1143.00
2023-06-20T11:20:49.801Z,1117.00
2023-06-20T11:21:49.755Z,1118.00
2023-06-20T11:22:49.728Z,1121.00
2023-06-20T11:23:49.653Z,1129.00
2023-06-20T11:24:49.925Z,1137.00
2023-06-20T11:25:49.588Z,1145.00
2023-06-20T11:26:49.656Z,1136.00
2023-06-20T11:27:49.690Z,1138.00
2023-06-20T11:28:52.567Z,1130.00
2023-06-20T11:29:50.829Z,1130.00
2023-06-20T11:30:49.455Z,1131.00
2023-06-20T11:31:49.367Z,1121.00
2023-06-20T11:32:49.430Z,1106.00
2023-06-20T11:33:49.305Z,1094.00
2023-06-20T11:34:49.268Z,1105.00
2023-06-20T11:35:49.213Z,1102.00
2023-06-20T11:36:49.162Z,1109.00
2023-06-20T11:37:49.129Z,1091.00
2023-06-20T11:38:49.110Z,1082.00
2023-06-20T11:39:49.084Z,1091.00
2023-06-20T11:40:49.036Z,1080.00
2023-06-20T11:41:49.001Z,1085.00
2023-06-20T11:42:48.972Z,1093.00
2023-06-20T11:43:48.901Z,1093.00
2023-06-20T11:44:48.864Z,1085.00
2023-06-20T11:45:48.840Z,1112.00
2023-06-20T11:46:48.945Z,1114.00
2023-06-20T11:47:48.811Z,1115.00
2023-06-20T11:48:48.710Z,1117.00
2023-06-20T11:49:48.729Z,1116.00
2023-06-20T11:50:48.638Z,1118.00
2023-06-20T11:51:48.599Z,1122.00
2023-06-20T11:52:48.559Z,1124.00
2023-06-20T11:53:48.497Z,1140.00
2023-06-20T11:54:48.473Z,1126.00
2023-06-20T11:55:48.436Z,1128.00
2023-06-20T11:56:48.371Z,1128.00
2023-06-20T11:57:48.347Z,1123.00
2023-06-20T11:58:48.299Z,1119.00
2023-06-20T11:59:48.274Z,1130.00
2023-06-20T12:00:48.229Z,1135.00
2023-06-20T12:01:48.235Z,1143.00
2023-06-20T12:02:48.157Z,1130.00
2023-06-20T12:03:48.133Z,1142.00
2023-06-20T12:04:48.078Z,1117.00
2023-06-20T12:05:48.062Z,1103.00
2023-06-20T12:06:48.009Z,1097.00
2023-06-20T12:07:47.966Z,1088.00
2023-06-20T12:08:47.920Z,1078.00
2023-06-20T12:09:47.873Z,1071.00
2023-06-20T12:10:47.882Z,1065.00
2023-06-20T12:11:47.805Z,1057.00